sensor_id;sensor_type;location;lat;lon;timestamp;noise_LAeq;noise_LA_min;noise_LA_max;noise_LA01;noise_LA95
46749;Laerm;33775;47.992;11.864;2024-01-11T00:00:26;36.24;28.67;39.34;;
46749;Laerm;33775;47.992;11.864;2024-01-11T00:02:51;36.25;26.56;39.34;;
46749;Laerm;33775;47.992;11.864;2024-01-11T00:05:16;36.23;28.67;39.70;;
46749;Laerm;33775;47.992;11.864;2024-01-11T00:07:41;36.24;26.91;39.34;;
46749;Laerm;33775;47.992;11.864;2024-01-11T00:10:07;36.20;28.67;39.08;;
46749;Laerm;33775;47.992;11.864;2024-01-11T00:12:32;36.20;29.92;39.08;;
46749;Laerm;33775;47.992;11.864;2024-01-11T00:14:57;36.21;29.92;39.21;;
46749;Laerm;33775;47.992;11.864;2024-01-11T00:17:23;36.21;28.67;39.46;;
46749;Laerm;33775;47.992;11.864;2024-01-11T00:19:49;36.22;26.91;39.58;;
46749;Laerm;33775;47.992;11.864;2024-01-11T00:22:15;36.22;28.67;39.46;;
46749;Laerm;33775;47.992;11.864;2024-01-11T00:24:40;36.17;23.90;39.08;;
46749;Laerm;33775;47.992;11.864;2024-01-11T00:27:06;36.15;28.67;39.21;;
46749;Laerm;33775;47.992;11.864;2024-01-11T00:29:31;36.16;29.92;39.46;;
46749;Laerm;33775;47.992;11.864;2024-01-11T00:31:56;36.16;26.91;39.21;;
46749;Laerm;33775;47.992;11.864;2024-01-11T00:34:23;36.16;26.91;39.34;;
46749;Laerm;33775;47.992;11.864;2024-01-11T00:36:48;36.20;28.67;38.95;;
46749;Laerm;33775;47.992;11.864;2024-01-11T00:39:13;36.16;29.92;39.21;;
46749;Laerm;33775;47.992;11.864;2024-01-11T00:41:38;36.17;29.92;39.58;;
46749;Laerm;33775;47.992;11.864;2024-01-11T00:44:04;36.16;28.67;39.08;;
46749;Laerm;33775;47.992;11.864;2024-01-11T00:46:29;36.19;29.92;39.08;;
46749;Laerm;33775;47.992;11.864;2024-01-11T00:48:54;36.17;29.92;39.58;;
46749;Laerm;33775;47.992;11.864;2024-01-11T00:51:19;36.20;28.67;39.08;;
46749;Laerm;33775;47.992;11.864;2024-01-11T00:53:44;36.26;29.92;39.21;;
46749;Laerm;33775;47.992;11.864;2024-01-11T00:56:16;36.31;29.92;39.08;;
46749;Laerm;33775;47.992;11.864;2024-01-11T00:58:41;36.32;28.67;39.81;;
46749;Laerm;33775;47.992;11.864;2024-01-11T01:01:08;36.35;28.67;39.34;;
46749;Laerm;33775;47.992;11.864;2024-01-11T01:03:34;36.34;28.67;39.21;;
46749;Laerm;33775;47.992;11.864;2024-01-11T01:05:59;36.40;29.92;39.46;;
46749;Laerm;33775;47.992;11.864;2024-01-11T01:08:24;36.39;29.92;39.34;;
46749;Laerm;33775;47.992;11.864;2024-01-11T01:10:49;36.46;28.67;39.34;;
46749;Laerm;33775;47.992;11.864;2024-01-11T01:13:14;36.53;28.67;39.21;;
46749;Laerm;33775;47.992;11.864;2024-01-11T01:15:40;36.55;29.92;39.08;;
46749;Laerm;33775;47.992;11.864;2024-01-11T01:18:05;36.60;30.89;39.21;;
46749;Laerm;33775;47.992;11.864;2024-01-11T01:20:30;36.64;30.89;39.34;;
46749;Laerm;33775;47.992;11.864;2024-01-11T01:22:55;36.61;30.89;39.70;;
46749;Laerm;33775;47.992;11.864;2024-01-11T01:25:20;36.61;30.54;39.34;;
46749;Laerm;33775;47.992;11.864;2024-01-11T01:27:46;36.63;28.67;39.46;;
46749;Laerm;33775;47.992;11.864;2024-01-11T01:30:11;36.61;30.89;39.34;;
46749;Laerm;33775;47.992;11.864;2024-01-11T01:32:36;36.61;29.57;39.46;;
46749;Laerm;33775;47.992;11.864;2024-01-11T01:35:01;36.59;30.89;39.23;;
46749;Laerm;33775;47.992;11.864;2024-01-11T01:37:27;36.61;32.35;39.08;;
46749;Laerm;33775;47.992;11.864;2024-01-11T01:39:52;36.60;30.89;39.81;;
46749;Laerm;33775;47.992;11.864;2024-01-11T01:42:17;36.65;30.89;39.34;;
46749;Laerm;33775;47.992;11.864;2024-01-11T01:44:42;36.64;30.89;39.08;;
46749;Laerm;33775;47.992;11.864;2024-01-11T01:47:07;36.65;30.89;39.34;;
46749;Laerm;33775;47.992;11.864;2024-01-11T01:49:33;36.64;30.89;39.34;;
46749;Laerm;33775;47.992;11.864;2024-01-11T01:51:59;36.64;31.68;39.34;;
46749;Laerm;33775;47.992;11.864;2024-01-11T01:54:24;36.65;31.68;39.46;;
46749;Laerm;33775;47.992;11.864;2024-01-11T01:56:50;36.68;29.92;39.34;;
46749;Laerm;33775;47.992;11.864;2024-01-11T01:59:16;36.69;30.89;39.58;;
46749;Laerm;33775;47.992;11.864;2024-01-11T02:01:41;36.67;30.89;39.34;;
46749;Laerm;33775;47.992;11.864;2024-01-11T02:04:07;36.68;30.89;39.46;;
46749;Laerm;33775;47.992;11.864;2024-01-11T02:06:32;36.69;30.89;39.92;;
46749;Laerm;33775;47.992;11.864;2024-01-11T02:08:59;36.69;31.33;40.23;;
46749;Laerm;33775;47.992;11.864;2024-01-11T02:11:25;36.68;30.89;39.21;;
46749;Laerm;33775;47.992;11.864;2024-01-11T02:13:51;36.67;30.89;39.92;;
46749;Laerm;33775;47.992;11.864;2024-01-11T02:16:17;36.68;31.68;39.92;;
46749;Laerm;33775;47.992;11.864;2024-01-11T02:18:42;36.68;29.92;39.08;;
46749;Laerm;33775;47.992;11.864;2024-01-11T02:21:08;36.67;31.68;39.58;;
46749;Laerm;33775;47.992;11.864;2024-01-11T02:23:34;36.67;31.68;39.70;;
46749;Laerm;33775;47.992;11.864;2024-01-11T02:26:00;36.67;31.68;39.34;;
46749;Laerm;33775;47.992;11.864;2024-01-11T02:28:25;36.71;30.89;39.46;;
46749;Laerm;33775;47.992;11.864;2024-01-11T02:30:51;36.72;30.89;39.58;;
46749;Laerm;33775;47.992;11.864;2024-01-11T02:33:16;36.74;30.89;39.21;;
46749;Laerm;33775;47.992;11.864;2024-01-11T02:35:43;36.73;30.89;39.70;;
46749;Laerm;33775;47.992;11.864;2024-01-11T02:38:08;36.76;31.68;39.81;;
46749;Laerm;33775;47.992;11.864;2024-01-11T02:40:34;36.77;29.92;39.70;;
46749;Laerm;33775;47.992;11.864;2024-01-11T02:43:09;36.75;32.35;39.46;;
46749;Laerm;33775;47.992;11.864;2024-01-11T02:45:35;36.73;32.35;39.34;;
46749;Laerm;33775;47.992;11.864;2024-01-11T02:48:00;36.72;30.89;39.46;;
46749;Laerm;33775;47.992;11.864;2024-01-11T02:50:26;36.73;30.89;39.58;;
46749;Laerm;33775;47.992;11.864;2024-01-11T02:52:51;36.69;29.92;39.58;;
46749;Laerm;33775;47.992;11.864;2024-01-11T02:55:16;36.71;28.67;39.92;;
46749;Laerm;33775;47.992;11.864;2024-01-11T02:57:41;36.69;31.68;39.70;;
46749;Laerm;33775;47.992;11.864;2024-01-11T03:00:06;36.71;31.68;39.92;;
46749;Laerm;33775;47.992;11.864;2024-01-11T03:02:32;36.70;30.89;39.58;;
46749;Laerm;33775;47.992;11.864;2024-01-11T03:04:57;36.73;30.89;39.46;;
46749;Laerm;33775;47.992;11.864;2024-01-11T03:07:22;36.69;31.68;40.13;;
46749;Laerm;33775;47.992;11.864;2024-01-11T03:09:47;36.70;31.68;39.08;;
46749;Laerm;33775;47.992;11.864;2024-01-11T03:12:13;36.69;32.35;39.46;;
46749;Laerm;33775;47.992;11.864;2024-01-11T03:14:38;36.71;31.68;39.92;;
46749;Laerm;33775;47.992;11.864;2024-01-11T03:17:03;36.71;28.67;39.92;;
46749;Laerm;33775;47.992;11.864;2024-01-11T03:19:29;36.68;31.68;39.34;;
46749;Laerm;33775;47.992;11.864;2024-01-11T03:21:54;36.65;29.92;39.58;;
46749;Laerm;33775;47.992;11.864;2024-01-11T03:24:20;36.62;30.89;39.21;;
46749;Laerm;33775;47.992;11.864;2024-01-11T03:26:45;36.59;29.92;39.34;;
46749;Laerm;33775;47.992;11.864;2024-01-11T03:29:10;36.51;29.92;39.21;;
46749;Laerm;33775;47.992;11.864;2024-01-11T03:31:35;36.52;23.55;39.46;;
46749;Laerm;33775;47.992;11.864;2024-01-11T03:34:01;36.47;30.54;39.08;;
46749;Laerm;33775;47.992;11.864;2024-01-11T03:36:26;36.49;29.92;39.92;;
46749;Laerm;33775;47.992;11.864;2024-01-11T03:38:51;36.51;28.67;39.70;;
46749;Laerm;33775;47.992;11.864;2024-01-11T03:41:17;36.49;28.67;39.34;;
46749;Laerm;33775;47.992;11.864;2024-01-11T03:43:42;36.50;29.92;39.34;;
46749;Laerm;33775;47.992;11.864;2024-01-11T03:46:07;36.41;29.92;39.08;;
46749;Laerm;33775;47.992;11.864;2024-01-11T03:48:32;36.37;28.67;39.34;;
46749;Laerm;33775;47.992;11.864;2024-01-11T03:50:58;36.39;26.91;39.34;;
46749;Laerm;33775;47.992;11.864;2024-01-11T03:53:23;36.35;30.89;39.58;;
46749;Laerm;33775;47.992;11.864;2024-01-11T03:55:48;36.39;26.91;39.21;;
46749;Laerm;33775;47.992;11.864;2024-01-11T03:58:13;36.37;28.67;39.21;;
46749;Laerm;33775;47.992;11.864;2024-01-11T04:00:39;36.33;29.92;39.21;;
46749;Laerm;33775;47.992;11.864;2024-01-11T04:03:05;36.27;28.67;39.34;;
46749;Laerm;33775;47.992;11.864;2024-01-11T04:05:31;36.29;26.91;39.70;;
46749;Laerm;33775;47.992;11.864;2024-01-11T04:07:56;36.31;28.67;39.58;;
46749;Laerm;33775;47.992;11.864;2024-01-11T04:10:21;36.29;28.67;39.34;;
46749;Laerm;33775;47.992;11.864;2024-01-11T04:12:46;36.29;28.32;39.34;;
46749;Laerm;33775;47.992;11.864;2024-01-11T04:15:11;36.34;29.92;39.34;;
46749;Laerm;33775;47.992;11.864;2024-01-11T04:17:38;36.28;29.92;39.21;;
46749;Laerm;33775;47.992;11.864;2024-01-11T04:20:03;36.28;29.92;39.46;;
46749;Laerm;33775;47.992;11.864;2024-01-11T04:22:28;36.32;29.92;39.34;;
46749;Laerm;33775;47.992;11.864;2024-01-11T04:24:54;36.35;29.92;39.58;;
46749;Laerm;33775;47.992;11.864;2024-01-11T04:27:19;36.37;28.67;39.34;;
46749;Laerm;33775;47.992;11.864;2024-01-11T04:29:45;36.40;26.91;39.46;;
46749;Laerm;33775;47.992;11.864;2024-01-11T04:32:10;36.35;29.92;39.92;;
46749;Laerm;33775;47.992;11.864;2024-01-11T04:34:35;36.36;29.92;39.34;;
46749;Laerm;33775;47.992;11.864;2024-01-11T04:37:00;36.33;29.92;39.21;;
46749;Laerm;33775;47.992;11.864;2024-01-11T04:39:25;36.36;26.91;39.46;;
46749;Laerm;33775;47.992;11.864;2024-01-11T04:41:51;36.32;29.92;39.34;;
46749;Laerm;33775;47.992;11.864;2024-01-11T04:44:16;36.25;23.90;39.21;;
46749;Laerm;33775;47.992;11.864;2024-01-11T04:46:41;36.24;29.92;39.08;;
46749;Laerm;33775;47.992;11.864;2024-01-11T04:49:06;36.25;28.67;39.46;;
46749;Laerm;33775;47.992;11.864;2024-01-11T04:51:31;36.29;29.92;39.70;;
46749;Laerm;33775;47.992;11.864;2024-01-11T04:53:56;36.31;29.92;39.34;;
46749;Laerm;33775;47.992;11.864;2024-01-11T04:56:22;36.33;23.90;39.58;;
46749;Laerm;33775;47.992;11.864;2024-01-11T04:58:47;36.38;28.67;39.34;;
46749;Laerm;33775;47.992;11.864;2024-01-11T05:01:15;36.43;28.67;39.34;;
46749;Laerm;33775;47.992;11.864;2024-01-11T05:03:41;36.48;29.92;39.21;;
46749;Laerm;33775;47.992;11.864;2024-01-11T05:06:07;36.45;30.89;39.58;;
46749;Laerm;33775;47.992;11.864;2024-01-11T05:08:32;36.49;29.92;39.58;;
46749;Laerm;33775;47.992;11.864;2024-01-11T05:10:57;36.50;31.33;39.08;;
46749;Laerm;33775;47.992;11.864;2024-01-11T05:13:22;36.54;30.89;39.34;;
46749;Laerm;33775;47.992;11.864;2024-01-11T05:15:49;36.59;29.92;39.08;;
46749;Laerm;33775;47.992;11.864;2024-01-11T05:18:14;36.59;30.89;39.21;;
46749;Laerm;33775;47.992;11.864;2024-01-11T05:20:39;36.59;31.68;39.68;;
46749;Laerm;33775;47.992;11.864;2024-01-11T05:23:04;36.60;30.89;39.58;;
46749;Laerm;33775;47.992;11.864;2024-01-11T05:25:30;36.66;30.89;39.46;;
46749;Laerm;33775;47.992;11.864;2024-01-11T05:27:59;36.68;31.68;39.21;;
46749;Laerm;33775;47.992;11.864;2024-01-11T05:30:24;36.72;30.89;39.58;;
46749;Laerm;33775;47.992;11.864;2024-01-11T05:32:49;36.74;31.68;39.70;;
46749;Laerm;33775;47.992;11.864;2024-01-11T05:35:14;36.74;31.68;39.46;;
46749;Laerm;33775;47.992;11.864;2024-01-11T05:37:40;36.75;30.89;39.70;;
46749;Laerm;33775;47.992;11.864;2024-01-11T05:40:05;36.72;31.68;39.70;;
46749;Laerm;33775;47.992;11.864;2024-01-11T05:42:30;36.71;30.89;39.58;;
46749;Laerm;33775;47.992;11.864;2024-01-11T05:44:56;36.75;31.68;39.58;;
46749;Laerm;33775;47.992;11.864;2024-01-11T05:47:21;36.73;30.89;39.34;;
46749;Laerm;33775;47.992;11.864;2024-01-11T05:49:46;36.71;29.92;39.21;;
46749;Laerm;33775;47.992;11.864;2024-01-11T05:52:12;36.75;31.68;39.58;;
46749;Laerm;33775;47.992;11.864;2024-01-11T05:54:38;36.73;31.68;39.58;;
46749;Laerm;33775;47.992;11.864;2024-01-11T05:57:03;36.78;31.68;39.58;;
46749;Laerm;33775;47.992;11.864;2024-01-11T05:59:28;36.76;32.35;39.34;;
46749;Laerm;33775;47.992;11.864;2024-01-11T06:01:53;36.77;31.68;39.81;;
46749;Laerm;33775;47.992;11.864;2024-01-11T06:04:18;36.81;31.68;39.92;;
46749;Laerm;33775;47.992;11.864;2024-01-11T06:06:44;36.76;28.67;39.58;;
46749;Laerm;33775;47.992;11.864;2024-01-11T06:09:09;36.75;30.89;39.58;;
46749;Laerm;33775;47.992;11.864;2024-01-11T06:11:35;36.79;32.35;39.46;;
46749;Laerm;33775;47.992;11.864;2024-01-11T06:14:00;36.84;32.93;39.58;;
46749;Laerm;33775;47.992;11.864;2024-01-11T06:16:26;36.82;32.35;39.81;;
46749;Laerm;33775;47.992;11.864;2024-01-11T06:18:51;36.80;30.89;39.81;;
46749;Laerm;33775;47.992;11.864;2024-01-11T06:21:16;36.79;31.68;39.81;;
46749;Laerm;33775;47.992;11.864;2024-01-11T06:23:43;36.80;30.89;39.92;;
46749;Laerm;33775;47.992;11.864;2024-01-11T06:26:08;36.80;30.89;39.34;;
46749;Laerm;33775;47.992;11.864;2024-01-11T06:28:34;36.81;31.68;39.70;;
46749;Laerm;33775;47.992;11.864;2024-01-11T06:30:59;36.75;32.35;39.58;;
46749;Laerm;33775;47.992;11.864;2024-01-11T06:33:24;36.75;31.68;39.70;;
46749;Laerm;33775;47.992;11.864;2024-01-11T06:35:49;36.72;31.68;39.70;;
46749;Laerm;33775;47.992;11.864;2024-01-11T06:38:14;36.74;30.89;39.58;;
46749;Laerm;33775;47.992;11.864;2024-01-11T06:40:40;36.76;32.35;39.81;;
46749;Laerm;33775;47.992;11.864;2024-01-11T06:43:05;36.73;30.89;39.58;;
46749;Laerm;33775;47.992;11.864;2024-01-11T06:45:30;36.75;31.68;39.81;;
46749;Laerm;33775;47.992;11.864;2024-01-11T06:47:55;36.74;31.68;40.13;;
46749;Laerm;33775;47.992;11.864;2024-01-11T06:50:22;36.73;29.92;39.58;;
46749;Laerm;33775;47.992;11.864;2024-01-11T06:52:47;36.72;29.92;39.58;;
46749;Laerm;33775;47.992;11.864;2024-01-11T06:55:12;36.68;30.89;39.92;;
46749;Laerm;33775;47.992;11.864;2024-01-11T06:57:37;36.69;30.89;39.58;;
46749;Laerm;33775;47.992;11.864;2024-01-11T07:00:03;36.69;30.89;39.81;;
46749;Laerm;33775;47.992;11.864;2024-01-11T07:02:28;36.69;32.35;39.58;;
46749;Laerm;33775;47.992;11.864;2024-01-11T07:04:53;36.65;28.67;39.46;;
46749;Laerm;33775;47.992;11.864;2024-01-11T07:07:18;36.66;28.67;39.92;;
46749;Laerm;33775;47.992;11.864;2024-01-11T07:09:44;36.66;31.68;39.70;;
46749;Laerm;33775;47.992;11.864;2024-01-11T07:12:09;36.69;32.35;39.92;;
46749;Laerm;33775;47.992;11.864;2024-01-11T07:14:35;36.71;30.89;40.03;;
46749;Laerm;33775;47.992;11.864;2024-01-11T07:17:00;36.71;31.68;39.46;;
46749;Laerm;33775;47.992;11.864;2024-01-11T07:19:26;36.70;32.00;39.58;;
46749;Laerm;33775;47.992;11.864;2024-01-11T07:21:51;36.68;31.68;39.34;;
46749;Laerm;33775;47.992;11.864;2024-01-11T07:24:16;36.68;31.68;39.81;;
46749;Laerm;33775;47.992;11.864;2024-01-11T07:26:43;36.67;31.68;39.46;;
46749;Laerm;33775;47.992;11.864;2024-01-11T07:29:08;36.67;28.67;39.34;;
46749;Laerm;33775;47.992;11.864;2024-01-11T07:31:33;36.60;30.89;39.58;;
46749;Laerm;33775;47.992;11.864;2024-01-11T07:33:59;36.61;30.89;39.34;;
46749;Laerm;33775;47.992;11.864;2024-01-11T07:36:24;36.59;29.92;39.70;;
46749;Laerm;33775;47.992;11.864;2024-01-11T07:38:50;36.60;29.92;39.92;;
46749;Laerm;33775;47.992;11.864;2024-01-11T07:41:15;36.59;31.68;39.46;;
46749;Laerm;33775;47.992;11.864;2024-01-11T07:43:40;36.63;31.68;39.58;;
46749;Laerm;33775;47.992;11.864;2024-01-11T07:46:05;36.64;31.68;39.21;;
46749;Laerm;33775;47.992;11.864;2024-01-11T07:48:32;36.69;29.92;39.34;;
46749;Laerm;33775;47.992;11.864;2024-01-11T07:50:58;36.67;31.68;39.70;;
46749;Laerm;33775;47.992;11.864;2024-01-11T07:53:23;36.69;31.68;39.70;;
46749;Laerm;33775;47.992;11.864;2024-01-11T07:55:49;36.74;30.89;39.58;;
46749;Laerm;33775;47.992;11.864;2024-01-11T07:58:14;36.81;32.35;39.58;;
46749;Laerm;33775;47.992;11.864;2024-01-11T08:00:40;36.81;30.89;39.81;;
46749;Laerm;33775;47.992;11.864;2024-01-11T08:03:05;36.82;30.89;39.58;;
46749;Laerm;33775;47.992;11.864;2024-01-11T08:05:30;36.79;28.67;39.70;;
46749;Laerm;33775;47.992;11.864;2024-01-11T08:07:55;36.78;31.68;39.46;;
46749;Laerm;33775;47.992;11.864;2024-01-11T08:10:20;36.80;31.68;39.70;;
46749;Laerm;33775;47.992;11.864;2024-01-11T08:12:46;36.82;31.68;39.58;;
46749;Laerm;33775;47.992;11.864;2024-01-11T08:15:11;36.82;31.68;40.03;;
46749;Laerm;33775;47.992;11.864;2024-01-11T08:17:37;36.85;31.68;39.70;;
46749;Laerm;33775;47.992;11.864;2024-01-11T08:20:03;36.85;30.89;39.92;;
46749;Laerm;33775;47.992;11.864;2024-01-11T08:22:28;36.88;30.89;39.58;;
46749;Laerm;33775;47.992;11.864;2024-01-11T08:24:58;36.89;32.35;39.57;;
46749;Laerm;33775;47.992;11.864;2024-01-11T08:27:23;36.92;32.00;39.70;;
46749;Laerm;33775;47.992;11.864;2024-01-11T08:29:49;36.93;31.68;39.58;;
46749;Laerm;33775;47.992;11.864;2024-01-11T08:32:14;36.91;31.68;39.92;;
46749;Laerm;33775;47.992;11.864;2024-01-11T08:34:39;36.93;32.35;40.03;;
46749;Laerm;33775;47.992;11.864;2024-01-11T08:37:04;36.93;31.68;39.81;;
46749;Laerm;33775;47.992;11.864;2024-01-11T08:39:30;36.90;30.89;39.81;;
46749;Laerm;33775;47.992;11.864;2024-01-11T08:41:56;36.90;31.68;40.33;;
46749;Laerm;33775;47.992;11.864;2024-01-11T08:44:21;36.92;32.35;40.33;;
46749;Laerm;33775;47.992;11.864;2024-01-11T08:46:46;36.97;32.35;39.92;;
46749;Laerm;33775;47.992;11.864;2024-01-11T08:49:12;36.99;32.93;40.18;;
46749;Laerm;33775;47.992;11.864;2024-01-11T08:51:37;37.01;30.89;39.92;;
46749;Laerm;33775;47.992;11.864;2024-01-11T08:54:03;37.04;31.68;39.92;;
46749;Laerm;33775;47.992;11.864;2024-01-11T08:56:29;37.06;32.35;39.92;;
46749;Laerm;33775;47.992;11.864;2024-01-11T08:58:54;37.10;32.35;39.70;;
46749;Laerm;33775;47.992;11.864;2024-01-11T09:01:19;37.09;31.68;39.92;;
46749;Laerm;33775;47.992;11.864;2024-01-11T09:03:45;37.10;32.93;39.70;;
46749;Laerm;33775;47.992;11.864;2024-01-11T09:06:12;37.13;32.93;39.92;;
46749;Laerm;33775;47.992;11.864;2024-01-11T09:08:38;37.14;32.35;40.03;;
46749;Laerm;33775;47.992;11.864;2024-01-11T09:11:04;37.16;31.68;39.81;;
46749;Laerm;33775;47.992;11.864;2024-01-11T09:13:29;37.15;33.44;39.81;;
46749;Laerm;33775;47.992;11.864;2024-01-11T09:15:54;37.17;30.89;40.03;;
46749;Laerm;33775;47.992;11.864;2024-01-11T09:18:20;37.18;30.89;40.33;;
46749;Laerm;33775;47.992;11.864;2024-01-11T09:20:45;37.19;31.68;40.13;;
46749;Laerm;33775;47.992;11.864;2024-01-11T09:23:11;37.19;31.68;40.03;;
46749;Laerm;33775;47.992;11.864;2024-01-11T09:25:36;37.12;32.35;40.03;;
46749;Laerm;33775;47.992;11.864;2024-01-11T09:28:02;37.15;31.68;40.23;;
46749;Laerm;33775;47.992;11.864;2024-01-11T09:30:27;37.15;32.93;39.81;;
46749;Laerm;33775;47.992;11.864;2024-01-11T09:32:52;37.12;32.00;39.58;;
46749;Laerm;33775;47.992;11.864;2024-01-11T09:35:17;37.10;29.92;39.81;;
46749;Laerm;33775;47.992;11.864;2024-01-11T09:37:43;37.07;31.68;39.81;;
46749;Laerm;33775;47.992;11.864;2024-01-11T09:40:11;37.09;29.92;40.13;;
46749;Laerm;33775;47.992;11.864;2024-01-11T09:42:39;37.08;31.68;40.13;;
46749;Laerm;33775;47.992;11.864;2024-01-11T09:45:07;37.13;32.35;40.33;;
46749;Laerm;33775;47.992;11.864;2024-01-11T09:47:33;37.07;32.35;40.23;;
46749;Laerm;33775;47.992;11.864;2024-01-11T09:50:00;37.09;31.68;39.92;;
46749;Laerm;33775;47.992;11.864;2024-01-11T09:52:27;37.03;31.68;40.03;;
46749;Laerm;33775;47.992;11.864;2024-01-11T09:54:53;37.00;31.68;40.18;;
46749;Laerm;33775;47.992;11.864;2024-01-11T09:57:20;36.98;32.35;39.81;;
46749;Laerm;33775;47.992;11.864;2024-01-11T09:59:49;37.02;31.68;40.33;;
46749;Laerm;33775;47.992;11.864;2024-01-11T10:02:16;37.04;31.68;40.23;;
46749;Laerm;33775;47.992;11.864;2024-01-11T10:04:42;37.01;31.68;39.81;;
46749;Laerm;33775;47.992;11.864;2024-01-11T10:07:07;37.00;31.68;40.03;;
46749;Laerm;33775;47.992;11.864;2024-01-11T10:09:33;36.96;30.89;40.23;;
46749;Laerm;33775;47.992;11.864;2024-01-11T10:11:58;36.97;31.68;40.33;;
46749;Laerm;33775;47.992;11.864;2024-01-11T10:14:23;36.93;30.89;40.03;;
46749;Laerm;33775;47.992;11.864;2024-01-11T10:16:49;36.95;31.68;39.81;;
46749;Laerm;33775;47.992;11.864;2024-01-11T10:19:14;36.98;29.92;40.13;;
46749;Laerm;33775;47.992;11.864;2024-01-11T10:21:41;36.94;28.67;40.23;;
46749;Laerm;33775;47.992;11.864;2024-01-11T10:24:06;36.91;30.89;39.81;;
46749;Laerm;33775;47.992;11.864;2024-01-11T10:26:32;36.91;31.68;39.81;;
46749;Laerm;33775;47.992;11.864;2024-01-11T10:29:01;36.90;30.89;40.03;;
46749;Laerm;33775;47.992;11.864;2024-01-11T10:31:29;36.89;30.89;40.03;;
46749;Laerm;33775;47.992;11.864;2024-01-11T10:33:55;36.87;31.68;39.81;;
46749;Laerm;33775;47.992;11.864;2024-01-11T10:36:20;36.87;31.68;39.81;;
46749;Laerm;33775;47.992;11.864;2024-01-11T10:38:46;36.87;30.89;39.81;;
46749;Laerm;33775;47.992;11.864;2024-01-11T10:41:11;36.88;31.68;39.92;;
46749;Laerm;33775;47.992;11.864;2024-01-11T10:43:38;36.89;29.92;39.81;;
46749;Laerm;33775;47.992;11.864;2024-01-11T10:46:03;36.91;31.68;39.81;;
46749;Laerm;33775;47.992;11.864;2024-01-11T10:48:31;36.90;31.68;40.03;;
46749;Laerm;33775;47.992;11.864;2024-01-11T10:51:00;36.90;31.68;40.33;;
46749;Laerm;33775;47.992;11.864;2024-01-11T10:56:03;36.90;32.35;39.92;;
46749;Laerm;33775;47.992;11.864;2024-01-11T10:58:29;36.87;30.89;39.92;;
46749;Laerm;33775;47.992;11.864;2024-01-11T11:00:55;36.90;31.68;39.70;;
46749;Laerm;33775;47.992;11.864;2024-01-11T11:03:21;36.90;30.89;40.03;;
46749;Laerm;33775;47.992;11.864;2024-01-11T11:05:48;36.87;30.89;39.81;;
46749;Laerm;33775;47.992;11.864;2024-01-11T11:08:13;36.88;31.68;39.70;;
46749;Laerm;33775;47.992;11.864;2024-01-11T11:10:38;36.89;32.35;40.33;;
46749;Laerm;33775;47.992;11.864;2024-01-11T11:13:05;36.93;31.68;40.13;;
46749;Laerm;33775;47.992;11.864;2024-01-11T11:15:31;36.87;30.89;40.03;;
46749;Laerm;33775;47.992;11.864;2024-01-11T11:17:57;36.89;30.89;39.81;;
46749;Laerm;33775;47.992;11.864;2024-01-11T11:20:22;36.88;30.89;39.81;;
46749;Laerm;33775;47.992;11.864;2024-01-11T11:22:48;36.87;31.68;39.81;;
46749;Laerm;33775;47.992;11.864;2024-01-11T11:25:26;36.86;31.68;39.70;;
46749;Laerm;33775;47.992;11.864;2024-01-11T11:27:53;36.85;28.67;40.13;;
46749;Laerm;33775;47.992;11.864;2024-01-11T11:30:18;36.87;30.89;39.70;;
46749;Laerm;33775;47.992;11.864;2024-01-11T11:32:44;36.90;32.35;40.03;;
46749;Laerm;33775;47.992;11.864;2024-01-11T11:35:10;36.90;28.67;39.92;;
46749;Laerm;33775;47.992;11.864;2024-01-11T11:37:38;36.88;30.89;39.70;;
46749;Laerm;33775;47.992;11.864;2024-01-11T11:40:13;36.87;30.89;40.13;;
46749;Laerm;33775;47.992;11.864;2024-01-11T11:42:39;36.84;31.68;40.03;;
46749;Laerm;33775;47.992;11.864;2024-01-11T11:45:05;36.83;31.68;39.58;;
46749;Laerm;33775;47.992;11.864;2024-01-11T11:47:34;36.88;31.68;39.70;;
46749;Laerm;33775;47.992;11.864;2024-01-11T11:50:03;36.84;29.92;39.81;;
46749;Laerm;33775;47.992;11.864;2024-01-11T11:52:33;36.85;30.89;40.23;;
46749;Laerm;33775;47.992;11.864;2024-01-11T11:54:59;36.86;29.92;39.81;;
46749;Laerm;33775;47.992;11.864;2024-01-11T11:57:25;36.84;31.68;39.70;;
46749;Laerm;33775;47.992;11.864;2024-01-11T11:59:52;36.84;30.89;39.81;;
46749;Laerm;33775;47.992;11.864;2024-01-11T12:02:19;36.82;31.68;40.13;;
46749;Laerm;33775;47.992;11.864;2024-01-11T12:04:46;36.83;31.68;40.03;;
46749;Laerm;33775;47.992;11.864;2024-01-11T12:07:11;36.84;31.68;39.92;;
46749;Laerm;33775;47.992;11.864;2024-01-11T12:09:36;36.78;29.92;39.70;;
46749;Laerm;33775;47.992;11.864;2024-01-11T12:12:02;36.81;31.68;39.81;;
46749;Laerm;33775;47.992;11.864;2024-01-11T12:14:28;36.82;31.68;40.23;;
46749;Laerm;33775;47.992;11.864;2024-01-11T12:16:56;36.81;30.89;40.03;;
46749;Laerm;33775;47.992;11.864;2024-01-11T12:19:22;36.83;30.89;39.70;;
46749;Laerm;33775;47.992;11.864;2024-01-11T12:21:48;36.80;28.67;39.70;;
46749;Laerm;33775;47.992;11.864;2024-01-11T12:24:13;36.81;30.89;39.70;;
46749;Laerm;33775;47.992;11.864;2024-01-11T12:26:38;36.84;31.68;40.03;;
46749;Laerm;33775;47.992;11.864;2024-01-11T12:29:03;36.83;31.68;40.03;;
46749;Laerm;33775;47.992;11.864;2024-01-11T12:31:29;36.81;29.92;39.70;;
46749;Laerm;33775;47.992;11.864;2024-01-11T12:33:54;36.83;28.67;39.58;;
46749;Laerm;33775;47.992;11.864;2024-01-11T12:36:19;36.80;30.89;39.70;;
46749;Laerm;33775;47.992;11.864;2024-01-11T12:38:48;36.81;29.92;39.81;;
46749;Laerm;33775;47.992;11.864;2024-01-11T12:41:13;36.80;30.89;40.43;;
46749;Laerm;33775;47.992;11.864;2024-01-11T12:43:39;36.82;30.89;39.70;;
46749;Laerm;33775;47.992;11.864;2024-01-11T12:46:04;36.86;32.35;40.13;;
46749;Laerm;33775;47.992;11.864;2024-01-11T12:48:29;36.85;31.68;39.92;;
46749;Laerm;33775;47.992;11.864;2024-01-11T12:50:55;36.85;31.68;39.46;;
46749;Laerm;33775;47.992;11.864;2024-01-11T12:53:20;36.85;30.89;40.13;;
46749;Laerm;33775;47.992;11.864;2024-01-11T12:55:46;36.83;30.89;40.03;;
46749;Laerm;33775;47.992;11.864;2024-01-11T12:58:11;36.88;31.68;39.70;;
46749;Laerm;33775;47.992;11.864;2024-01-11T13:00:37;36.86;31.68;39.58;;
46749;Laerm;33775;47.992;11.864;2024-01-11T13:03:03;36.82;30.89;39.92;;
46749;Laerm;33775;47.992;11.864;2024-01-11T13:05:29;36.82;31.68;39.92;;
46749;Laerm;33775;47.992;11.864;2024-01-11T13:07:59;36.84;29.92;40.03;;
46749;Laerm;33775;47.992;11.864;2024-01-11T13:10:24;36.81;30.89;39.46;;
46749;Laerm;33775;47.992;11.864;2024-01-11T13:12:53;36.82;30.89;39.99;;
46749;Laerm;33775;47.992;11.864;2024-01-11T13:15:18;36.88;29.92;40.33;;
46749;Laerm;33775;47.992;11.864;2024-01-11T13:17:43;36.87;31.68;40.03;;
46749;Laerm;33775;47.992;11.864;2024-01-11T13:20:08;36.88;29.92;39.58;;
46749;Laerm;33775;47.992;11.864;2024-01-11T13:22:34;36.89;30.89;39.81;;
46749;Laerm;33775;47.992;11.864;2024-01-11T13:24:59;36.89;31.68;40.33;;